createdAt,value
2022-12-03T00:01:01.041Z,101040.23
2022-12-03T00:03:29.727Z,101038.52
2022-12-03T00:05:57.738Z,101041.02
2022-12-03T00:08:25.568Z,101040.67
2022-12-03T00:10:53.482Z,101043.52
2022-12-03T00:13:21.650Z,101044.42
2022-12-03T00:15:49.739Z,101045.81
2022-12-03T00:18:17.890Z,101046.18
2022-12-03T00:20:45.849Z,101046.69
2022-12-03T00:23:13.662Z,101045.14
2022-12-03T00:25:41.595Z,101046.84
2022-12-03T00:28:09.470Z,101044.04
2022-12-03T00:30:37.332Z,101044.02
2022-12-03T00:33:05.298Z,101045.41
2022-12-03T00:35:33.360Z,101045.77
2022-12-03T00:38:01.226Z,101048.40
2022-12-03T00:40:29.377Z,101052.02
2022-12-03T00:42:57.296Z,101053.30
2022-12-03T00:45:25.237Z,101054.90
2022-12-03T00:47:53.204Z,101057.65
2022-12-03T00:50:21.173Z,101060.20
2022-12-03T00:52:49.939Z,101061.95
2022-12-03T00:55:17.895Z,101061.11
2022-12-03T00:57:45.991Z,101062.52
2022-12-03T01:00:14.684Z,101064.48
2022-12-03T01:02:42.970Z,101064.16
2022-12-03T01:05:11.429Z,101064.66
2022-12-03T01:07:39.889Z,101065.68
2022-12-03T01:10:08.305Z,101066.05
2022-12-03T01:12:36.140Z,101065.02
2022-12-03T01:15:05.657Z,101067.46
2022-12-03T01:17:33.548Z,101070.48
2022-12-03T01:20:03.965Z,101064.99
2022-12-03T01:22:32.031Z,101060.21
2022-12-03T01:25:00.212Z,101058.32
2022-12-03T01:27:28.158Z,101057.21
2022-12-03T01:29:56.050Z,101057.73
2022-12-03T01:32:23.839Z,101062.09
2022-12-03T01:34:53.865Z,101064.80
2022-12-03T01:37:24.890Z,101065.60
2022-12-03T01:39:53.023Z,101069.17
2022-12-03T01:42:27.567Z,101069.70
2022-12-03T01:44:58.417Z,101072.16
2022-12-03T01:47:31.820Z,101076.05
2022-12-03T01:50:15.735Z,101071.05
2022-12-03T01:52:44.316Z,101071.35
2022-12-03T01:55:16.587Z,101072.41
2022-12-03T01:57:53.875Z,101073.39
2022-12-03T02:00:26.976Z,101072.11
2022-12-03T02:03:01.076Z,101072.66
2022-12-03T02:05:31.349Z,101070.41
2022-12-03T02:08:00.471Z,101067.84
2022-12-03T02:10:32.816Z,101063.02
2022-12-03T02:13:06.608Z,101065.30
2022-12-03T02:15:36.072Z,101056.82
2022-12-03T02:18:04.345Z,101058.75
2022-12-03T02:20:37.080Z,101058.74
2022-12-03T02:23:12.196Z,101055.05
2022-12-03T02:25:40.019Z,101050.72
2022-12-03T02:28:09.644Z,101051.44
2022-12-03T02:30:37.795Z,101053.41
2022-12-03T02:33:05.803Z,101056.41
2022-12-03T02:35:36.718Z,101058.34
2022-12-03T02:38:18.607Z,101056.99
2022-12-03T02:40:49.341Z,101060.30
2022-12-03T02:43:19.641Z,101060.27
2022-12-03T02:45:51.669Z,101060.68
2022-12-03T02:48:24.204Z,101061.23
2022-12-03T02:50:55.921Z,101061.94
2022-12-03T02:53:28.795Z,101056.52
2022-12-03T02:55:59.553Z,101055.80
2022-12-03T02:58:31.271Z,101053.98
2022-12-03T03:01:00.989Z,101056.63
2022-12-03T03:03:30.993Z,101055.31
2022-12-03T03:06:02.357Z,101052.65
2022-12-03T03:08:31.402Z,101056.05
2022-12-03T03:11:01.563Z,101059.32
2022-12-03T03:13:31.345Z,101061.36
2022-12-03T03:15:59.746Z,101060.45
2022-12-03T03:18:27.862Z,101062.73
2022-12-03T03:20:55.957Z,101061.67
2022-12-03T03:23:24.916Z,101060.27
2022-12-03T03:26:11.549Z,101054.86
2022-12-03T03:28:43.076Z,101060.91
2022-12-03T03:31:14.300Z,101061.05
2022-12-03T03:33:45.668Z,101059.73
2022-12-03T03:36:15.360Z,101059.13
2022-12-03T03:38:44.248Z,101058.56
2022-12-03T03:41:13.442Z,101057.44
2022-12-03T03:43:43.176Z,101058.83
2022-12-03T03:46:12.358Z,101060.20
2022-12-03T03:48:42.658Z,101060.91
2022-12-03T03:51:12.652Z,101062.41
2022-12-03T03:53:44.308Z,101063.69
2022-12-03T03:56:12.565Z,101063.03
2022-12-03T03:58:41.159Z,101065.98
2022-12-03T04:01:11.409Z,101065.10
2022-12-03T04:03:39.894Z,101065.38
2022-12-03T04:06:09.164Z,101069.77
2022-12-03T04:08:37.061Z,101072.91
2022-12-03T04:11:23.802Z,101070.75
2022-12-03T04:13:51.948Z,101076.55
2022-12-03T04:16:19.917Z,101073.17
2022-12-03T04:18:48.255Z,101069.76
2022-12-03T04:21:40.870Z,101072.14
2022-12-03T04:24:10.402Z,101072.52
2022-12-03T04:26:57.107Z,101073.23
2022-12-03T04:29:25.162Z,101074.80
2022-12-03T04:32:11.639Z,101074.28
2022-12-03T04:34:58.109Z,101078.13
2022-12-03T04:37:26.055Z,101078.37
2022-12-03T04:39:53.983Z,101079.50
2022-12-03T04:42:22.140Z,101079.02
2022-12-03T04:44:50.511Z,101075.43
2022-12-03T04:47:20.870Z,101074.41
2022-12-03T04:49:51.349Z,101076.22
2022-12-03T04:52:20.583Z,101074.38
2022-12-03T04:54:48.646Z,101072.52
2022-12-03T04:57:17.441Z,101072.02
2022-12-03T04:59:45.364Z,101070.33
2022-12-03T05:02:13.271Z,101070.84
2022-12-03T05:04:42.122Z,101070.88
2022-12-03T05:07:11.430Z,101074.20
2022-12-03T05:09:39.378Z,101074.90
2022-12-03T05:12:07.551Z,101076.84
2022-12-03T05:14:36.889Z,101078.44
2022-12-03T05:17:05.011Z,101078.46
2022-12-03T05:19:51.537Z,101080.92
2022-12-03T05:22:19.424Z,101076.36
2022-12-03T05:24:47.305Z,101077.77
2022-12-03T05:27:18.859Z,101077.95
2022-12-03T05:29:51.645Z,101075.56
2022-12-03T05:32:20.070Z,101070.63
2022-12-03T05:34:48.054Z,101071.00
2022-12-03T05:37:16.110Z,101071.55
2022-12-03T05:39:44.295Z,101073.85
2022-12-03T05:42:31.422Z,101074.92
2022-12-03T05:44:59.363Z,101075.66
2022-12-03T05:47:27.338Z,101079.48
2022-12-03T05:49:55.204Z,101079.93
2022-12-03T05:52:22.968Z,101077.30
2022-12-03T05:54:50.928Z,101075.59
2022-12-03T05:57:19.136Z,101075.64
2022-12-03T05:59:46.908Z,101075.34
2022-12-03T06:02:14.807Z,101075.45
2022-12-03T06:04:42.902Z,101081.14
2022-12-03T06:07:13.939Z,101086.39
2022-12-03T06:09:42.250Z,101086.78
2022-12-03T06:12:10.157Z,101088.44
2022-12-03T06:14:38.237Z,101087.96
2022-12-03T06:17:06.031Z,101085.08
2022-12-03T06:19:34.816Z,101080.95
2022-12-03T06:22:02.602Z,101084.58
2022-12-03T06:24:30.518Z,101086.55
2022-12-03T06:26:58.382Z,101086.24
2022-12-03T06:29:26.234Z,101090.41
2022-12-03T06:31:54.138Z,101097.32
2022-12-03T06:34:22.122Z,101098.06
2022-12-03T06:36:50.397Z,101101.23
2022-12-03T06:39:18.571Z,101099.17
2022-12-03T06:41:46.519Z,101102.95
2022-12-03T06:44:15.121Z,101107.40
2022-12-03T06:46:43.232Z,101106.70
2022-12-03T06:49:11.102Z,101108.23
2022-12-03T06:51:39.568Z,101104.83
2022-12-03T06:54:07.560Z,101104.46
2022-12-03T06:56:40.419Z,101104.66
2022-12-03T06:59:13.601Z,101108.84
2022-12-03T07:01:41.656Z,101109.48
2022-12-03T07:04:09.988Z,101110.91
2022-12-03T07:06:37.905Z,101114.44
2022-12-03T07:09:05.778Z,101112.29
2022-12-03T07:11:39.734Z,101109.52
2022-12-03T07:14:11.477Z,101112.58
2022-12-03T07:16:40.074Z,101113.39
2022-12-03T07:19:08.149Z,101115.45
2022-12-03T07:21:36.037Z,101110.38
2022-12-03T07:24:04.131Z,101112.70
2022-12-03T07:26:32.530Z,101114.15
2022-12-03T07:29:00.468Z,101112.67
2022-12-03T07:31:28.584Z,101109.34
2022-12-03T07:33:56.714Z,101110.42
2022-12-03T07:36:24.645Z,101104.84
2022-12-03T07:38:52.481Z,101098.55
2022-12-03T07:41:20.366Z,101094.09
2022-12-03T07:43:48.404Z,101088.30
2022-12-03T07:46:18.751Z,101081.67
2022-12-03T07:48:46.726Z,101083.84
2022-12-03T07:51:15.567Z,101081.85
2022-12-03T07:53:43.704Z,101081.00
2022-12-03T07:56:11.749Z,101076.79
2022-12-03T07:58:39.792Z,101075.50
2022-12-03T08:01:07.919Z,101076.11
2022-12-03T08:03:36.224Z,101078.30
2022-12-03T08:06:04.364Z,101080.73
2022-12-03T08:08:32.267Z,101080.98
2022-12-03T08:11:02.136Z,101078.34
2022-12-03T08:13:30.460Z,101079.51
2022-12-03T08:16:02.123Z,101084.12
2022-12-03T08:18:30.093Z,101083.61
2022-12-03T08:20:58.406Z,101081.02
2022-12-03T08:23:26.526Z,101079.98
2022-12-03T08:25:54.582Z,101080.33
2022-12-03T08:28:26.639Z,101082.38
2022-12-03T08:31:02.583Z,101081.67
2022-12-03T08:33:35.254Z,101081.88
2022-12-03T08:36:30.725Z,101082.02
2022-12-03T08:39:23.169Z,101085.55
2022-12-03T08:42:15.259Z,101091.05
2022-12-03T08:44:43.128Z,101095.01
2022-12-03T08:47:17.126Z,101098.14
2022-12-03T08:49:54.476Z,101094.52
2022-12-03T08:52:31.391Z,101086.56
2022-12-03T08:55:02.826Z,101084.83
2022-12-03T08:57:34.579Z,101090.00
2022-12-03T09:00:15.540Z,101087.58
2022-12-03T09:02:47.517Z,101085.31
2022-12-03T09:05:26.396Z,101086.41
2022-12-03T09:07:54.499Z,101084.86
2022-12-03T09:10:22.546Z,101083.98
2022-12-03T09:12:50.514Z,101083.41
2022-12-03T09:15:18.339Z,101084.14
2022-12-03T09:17:46.203Z,101080.86
2022-12-03T09:20:14.188Z,101078.95
2022-12-03T09:22:42.287Z,101077.56
2022-12-03T09:25:10.460Z,101073.35
2022-12-03T09:27:38.297Z,101074.88
2022-12-03T09:30:06.849Z,101069.02
2022-12-03T09:32:34.827Z,101064.17
2022-12-03T09:35:04.952Z,101065.21
2022-12-03T09:37:32.853Z,101058.94
2022-12-03T09:40:01.028Z,101053.19
2022-12-03T09:42:28.955Z,101053.98
2022-12-03T09:44:57.085Z,101052.79
2022-12-03T09:47:25.502Z,101055.05
2022-12-03T09:49:53.958Z,101056.77
2022-12-03T09:52:28.957Z,101055.41
2022-12-03T09:54:58.560Z,101053.05
2022-12-03T09:57:26.769Z,101052.06
2022-12-03T09:59:58.871Z,101048.15
2022-12-03T10:02:30.044Z,101047.64
2022-12-03T10:04:58.483Z,101043.82
2022-12-03T10:07:26.658Z,101041.92
2022-12-03T10:09:54.903Z,101043.39
2022-12-03T10:12:25.105Z,101047.05
2022-12-03T10:14:54.315Z,101043.29
2022-12-03T10:17:22.590Z,101044.55
2022-12-03T10:19:50.621Z,101044.39
2022-12-03T10:22:18.704Z,101044.16
2022-12-03T10:25:04.055Z,101041.04
2022-12-03T10:27:33.218Z,101041.39
2022-12-03T10:30:04.773Z,101039.92
2022-12-03T10:32:45.508Z,101037.41
2022-12-03T10:35:21.036Z,101034.50
2022-12-03T10:37:59.835Z,101029.89
2022-12-03T10:40:33.609Z,101028.09
2022-12-03T10:43:15.545Z,101023.31
2022-12-03T10:45:48.277Z,101021.11
2022-12-03T10:48:19.357Z,101018.04
2022-12-03T10:50:52.100Z,101010.76
2022-12-03T10:53:22.504Z,101008.33
2022-12-03T10:55:52.494Z,101006.73
2022-12-03T10:58:26.195Z,101004.46
2022-12-03T11:00:56.442Z,101002.71
2022-12-03T11:03:30.768Z,100997.51
2022-12-03T11:06:01.664Z,100995.62
2022-12-03T11:08:34.195Z,100994.77
2022-12-03T11:11:06.984Z,100994.62
2022-12-03T11:13:34.783Z,100994.65
2022-12-03T11:16:05.787Z,100997.16
2022-12-03T11:18:36.568Z,100994.88
2022-12-03T11:21:09.109Z,100990.45
2022-12-03T11:23:46.757Z,100992.05
2022-12-03T11:26:19.650Z,100993.17
2022-12-03T11:28:47.864Z,100992.71
2022-12-03T11:31:38.367Z,100987.59
2022-12-03T11:34:31.549Z,100986.09
2022-12-03T11:37:10.071Z,100982.83
2022-12-03T11:39:55.654Z,100979.75
2022-12-03T11:42:26.628Z,100973.96
2022-12-03T11:45:06.770Z,100975.70
2022-12-03T11:47:39.766Z,100977.91
2022-12-03T11:50:20.898Z,100977.89
2022-12-03T11:52:54.567Z,100975.73
2022-12-03T11:55:33.098Z,100975.84
2022-12-03T11:58:15.260Z,100973.63
2022-12-03T12:00:55.312Z,100972.13
2022-12-03T12:03:24.810Z,100972.78
2022-12-03T12:06:19.288Z,100968.22
2022-12-03T12:08:49.852Z,100966.45
2022-12-03T12:11:19.347Z,100962.73
2022-12-03T12:13:47.201Z,100961.61
2022-12-03T12:16:56.028Z,100963.73
2022-12-03T12:19:49.748Z,100961.12
2022-12-03T12:22:29.825Z,100961.97
2022-12-03T12:24:59.065Z,100961.27
2022-12-03T12:27:37.757Z,100958.84
2022-12-03T12:30:10.026Z,100957.96
2022-12-03T12:32:47.184Z,100959.83
2022-12-03T12:35:17.232Z,100961.19
2022-12-03T12:38:01.060Z,100963.20
2022-12-03T12:40:32.359Z,100962.27
2022-12-03T12:43:10.244Z,100961.88
2022-12-03T12:45:42.861Z,100963.87
2022-12-03T12:48:31.401Z,100962.23
2022-12-03T12:51:20.818Z,100960.78
2022-12-03T12:53:50.232Z,100965.27
2022-12-03T12:56:25.030Z,100964.58
2022-12-03T12:58:53.954Z,100962.65
2022-12-03T13:01:32.696Z,100959.90
2022-12-03T13:04:00.795Z,100956.48
2022-12-03T13:06:32.020Z,100957.14
2022-12-03T13:09:02.475Z,100956.83
2022-12-03T13:11:45.628Z,100962.80
2022-12-03T13:14:31.532Z,100958.83
2022-12-03T13:17:02.105Z,100957.48
2022-12-03T13:19:43.302Z,100958.63
2022-12-03T13:22:22.406Z,100955.24
2022-12-03T13:24:52.019Z,100958.05
2022-12-03T13:27:19.966Z,100956.63
2022-12-03T13:29:53.621Z,100953.21
2022-12-03T13:32:27.722Z,100952.80
2022-12-03T13:35:02.530Z,100952.98
2022-12-03T13:37:32.056Z,100955.52
2022-12-03T13:40:12.662Z,100961.16
2022-12-03T13:42:45.191Z,100960.91
2022-12-03T13:45:19.160Z,100955.80
2022-12-03T13:47:49.460Z,100954.32
2022-12-03T13:50:35.763Z,100953.20
2022-12-03T13:53:28.469Z,100953.30
2022-12-03T13:56:31.783Z,100949.86
2022-12-03T13:59:01.228Z,100952.55
2022-12-03T14:01:29.228Z,100951.54
2022-12-03T14:03:57.442Z,100951.23
2022-12-03T14:06:25.257Z,100951.30
2022-12-03T14:08:53.509Z,100951.27
2022-12-03T14:11:40.175Z,100950.95
2022-12-03T14:14:08.203Z,100954.30
2022-12-03T14:16:36.090Z,100950.83
2022-12-03T14:19:04.246Z,100953.31
2022-12-03T14:21:32.212Z,100957.35
2022-12-03T14:24:00.194Z,100957.58
2022-12-03T14:26:28.101Z,100953.87
2022-12-03T14:28:56.186Z,100952.48
2022-12-03T14:31:24.427Z,100955.05
2022-12-03T14:33:52.739Z,100956.95
2022-12-03T14:36:20.912Z,100958.09
2022-12-03T14:38:48.780Z,100956.32
2022-12-03T14:41:35.453Z,100956.54
2022-12-03T14:44:03.464Z,100953.97
2022-12-03T14:46:34.036Z,100955.55
2022-12-03T14:49:01.966Z,100956.02
2022-12-03T14:51:30.027Z,100955.27
2022-12-03T14:53:57.867Z,100959.13
2022-12-03T14:56:25.840Z,100960.25
2022-12-03T14:58:53.842Z,100958.98
2022-12-03T15:01:21.822Z,100963.09
2022-12-03T15:03:49.806Z,100961.94
2022-12-03T15:06:17.731Z,100963.27
2022-12-03T15:08:45.615Z,100964.91
2022-12-03T15:11:13.569Z,100964.14
2022-12-03T15:13:41.383Z,100964.75
2022-12-03T15:16:09.300Z,100963.66
2022-12-03T15:18:37.268Z,100962.35
2022-12-03T15:21:05.752Z,100964.92
2022-12-03T15:23:34.905Z,100960.85
2022-12-03T15:26:03.515Z,100957.48
2022-12-03T15:28:31.408Z,100957.41
2022-12-03T15:30:59.305Z,100954.59
2022-12-03T15:33:27.587Z,100957.77
2022-12-03T15:35:55.445Z,100958.84
2022-12-03T15:38:23.387Z,100958.52
2022-12-03T15:40:51.330Z,100958.44
2022-12-03T15:43:19.301Z,100954.91
2022-12-03T15:45:47.226Z,100952.76
2022-12-03T15:48:15.144Z,100952.50
2022-12-03T15:50:43.004Z,100953.78
2022-12-03T15:53:10.806Z,100956.25
2022-12-03T15:55:38.650Z,100960.23
2022-12-03T15:58:06.679Z,100962.92
2022-12-03T16:00:34.534Z,100963.02
2022-12-03T16:03:02.464Z,100967.37
2022-12-03T16:05:30.454Z,100969.48
2022-12-03T16:07:58.626Z,100973.48
2022-12-03T16:10:26.553Z,100974.28
2022-12-03T16:12:54.418Z,100974.42
2022-12-03T16:15:27.048Z,100972.48
2022-12-03T16:17:55.568Z,100963.94
2022-12-03T16:20:23.434Z,100964.04
2022-12-03T16:22:52.152Z,100963.06
2022-12-03T16:25:20.040Z,100963.27
2022-12-03T16:27:47.960Z,100960.37
2022-12-03T16:30:16.095Z,100960.42
2022-12-03T16:32:43.916Z,100958.45
2022-12-03T16:35:11.848Z,100955.13
2022-12-03T16:37:39.775Z,100956.61
2022-12-03T16:40:08.576Z,100959.48
2022-12-03T16:42:37.438Z,100960.40
2022-12-03T16:45:10.328Z,100962.91
2022-12-03T16:47:38.397Z,100963.55
2022-12-03T16:50:11.564Z,100964.20
2022-12-03T16:52:42.460Z,100966.65
2022-12-03T16:55:10.474Z,100966.60
2022-12-03T16:57:38.469Z,100967.89
2022-12-03T17:00:07.685Z,100967.52
2022-12-03T17:02:35.647Z,100968.77
2022-12-03T17:05:03.728Z,100968.73
2022-12-03T17:07:31.734Z,100969.77
2022-12-03T17:09:59.709Z,100971.10
2022-12-03T17:12:37.452Z,100969.50
2022-12-03T17:15:15.513Z,100972.90
2022-12-03T17:17:43.483Z,100972.13
2022-12-03T17:20:13.384Z,100971.48
2022-12-03T17:22:41.869Z,100976.59
2022-12-03T17:25:10.972Z,100975.94
2022-12-03T17:27:44.813Z,100983.05
2022-12-03T17:30:13.919Z,100984.38
2022-12-03T17:32:42.183Z,100982.66
2022-12-03T17:35:11.380Z,100980.14
2022-12-03T17:37:40.710Z,100977.86
2022-12-03T17:40:11.415Z,100976.17
2022-12-03T17:42:39.653Z,100972.07
2022-12-03T17:45:08.757Z,100974.25
2022-12-03T17:47:36.692Z,100970.30
2022-12-03T17:50:05.504Z,100972.10
2022-12-03T17:52:33.682Z,100970.21
2022-12-03T17:55:11.894Z,100970.77
2022-12-03T17:57:42.520Z,100970.04
2022-12-03T18:00:11.568Z,100967.50
2022-12-03T18:02:43.001Z,100969.31
2022-12-03T18:05:10.975Z,100968.48
2022-12-03T18:07:38.936Z,100966.40
2022-12-03T18:10:07.605Z,100967.80
2022-12-03T18:12:35.469Z,100966.00
2022-12-03T18:15:03.873Z,100966.73
2022-12-03T18:17:31.825Z,100962.64
2022-12-03T18:19:59.663Z,100961.31
2022-12-03T18:22:28.344Z,100962.55
2022-12-03T18:24:56.691Z,100963.58
2022-12-03T18:27:25.122Z,100962.01
2022-12-03T18:29:53.332Z,100961.46
2022-12-03T18:32:28.883Z,100962.34
2022-12-03T18:34:58.456Z,100967.80
2022-12-03T18:37:28.667Z,100965.13
2022-12-03T18:39:58.238Z,100967.11
2022-12-03T18:42:26.794Z,100964.53
2022-12-03T18:44:56.605Z,100962.99
2022-12-03T18:47:28.542Z,100963.33
2022-12-03T18:49:57.229Z,100964.34
2022-12-03T18:52:26.189Z,100967.89
2022-12-03T18:54:55.440Z,100967.89
2022-12-03T18:57:24.080Z,100966.46
2022-12-03T18:59:52.148Z,100967.29
2022-12-03T19:02:54.154Z,100967.11
2022-12-03T19:05:12.009Z,100965.38
2022-12-03T19:07:40.118Z,100966.63
2022-12-03T19:10:09.008Z,100967.61
2022-12-03T19:12:37.792Z,100969.84
2022-12-03T19:15:06.731Z,100971.67
2022-12-03T19:17:34.649Z,100971.87
2022-12-03T19:20:02.487Z,100970.40
2022-12-03T19:22:30.304Z,100967.09
2022-12-03T19:24:58.360Z,100963.27
2022-12-03T19:27:26.359Z,100964.74
2022-12-03T19:29:54.354Z,100969.08
2022-12-03T19:32:22.511Z,100969.89
2022-12-03T19:34:50.438Z,100968.50
2022-12-03T19:37:18.243Z,100970.59
2022-12-03T19:39:46.588Z,100970.33
2022-12-03T19:42:14.392Z,100971.58
2022-12-03T19:44:42.247Z,100973.14
2022-12-03T19:47:10.198Z,100972.27
2022-12-03T19:49:38.207Z,100973.84
2022-12-03T19:52:06.029Z,100974.58
2022-12-03T19:54:33.890Z,100976.25
2022-12-03T19:57:01.862Z,100979.52
2022-12-03T19:59:29.841Z,100986.30
2022-12-03T20:01:57.892Z,100987.06
2022-12-03T20:04:26.630Z,100991.40
2022-12-03T20:06:54.739Z,100991.66
2022-12-03T20:09:22.713Z,100989.51
2022-12-03T20:11:51.319Z,100993.45
2022-12-03T20:14:19.833Z,100990.11
2022-12-03T20:16:48.673Z,100991.09
2022-12-03T20:19:17.959Z,100995.75
2022-12-03T20:21:45.940Z,100996.02
2022-12-03T20:24:16.103Z,100994.09
2022-12-03T20:26:44.155Z,100993.80
2022-12-03T20:29:12.504Z,100992.59
2022-12-03T20:31:40.561Z,100995.27
2022-12-03T20:34:10.530Z,100992.90
2022-12-03T20:36:39.376Z,100997.98
2022-12-03T20:39:08.110Z,101000.33
2022-12-03T20:41:37.017Z,101000.00
2022-12-03T20:44:07.597Z,101000.92
2022-12-03T20:46:36.432Z,101004.27
2022-12-03T20:49:05.701Z,101007.31
2022-12-03T20:51:33.780Z,101008.27
2022-12-03T20:54:02.685Z,101007.79
2022-12-03T20:56:33.181Z,101006.40
2022-12-03T20:59:04.911Z,101007.64
2022-12-03T21:01:33.718Z,101013.33
2022-12-03T21:04:04.166Z,101016.19
2022-12-03T21:06:34.253Z,101020.39
2022-12-03T21:09:05.754Z,101021.18
2022-12-03T21:11:35.924Z,101015.65
2022-12-03T21:14:04.213Z,101013.45
2022-12-03T21:19:23.972Z,101020.15
2022-12-03T21:21:51.974Z,101019.88
2022-12-03T21:24:19.912Z,101016.40
2022-12-03T21:26:47.902Z,101015.04
2022-12-03T21:29:16.687Z,101011.08
2022-12-03T21:31:44.655Z,101010.04
2022-12-03T21:34:12.729Z,101009.27
2022-12-03T21:36:40.797Z,101009.03
2022-12-03T21:39:08.972Z,101007.25
2022-12-03T21:41:36.879Z,101008.61
2022-12-03T21:44:04.799Z,101009.39
2022-12-03T21:47:10.665Z,101008.16
2022-12-03T21:49:20.916Z,101005.39
2022-12-03T21:51:49.193Z,101007.23
2022-12-03T21:54:17.139Z,101004.64
2022-12-03T21:56:45.033Z,101005.61
2022-12-03T21:59:13.073Z,101000.73
2022-12-03T22:01:46.771Z,100999.65
2022-12-03T22:04:15.388Z,101003.67
2022-12-03T22:06:43.246Z,101000.80
2022-12-03T22:09:11.203Z,100999.14
2022-12-03T22:11:39.186Z,100999.15
2022-12-03T22:14:08.604Z,100997.78
2022-12-03T22:16:36.494Z,100997.30
2022-12-03T22:19:04.538Z,100997.41
2022-12-03T22:21:32.506Z,100999.30
2022-12-03T22:24:00.360Z,100996.45
2022-12-03T22:26:28.278Z,101000.36
2022-12-03T22:28:56.169Z,100999.86
2022-12-03T22:31:24.128Z,101003.59
2022-12-03T22:33:52.336Z,101002.73
2022-12-03T22:36:21.780Z,101001.02
2022-12-03T22:38:51.344Z,100998.86
2022-12-03T22:41:19.832Z,101000.02
2022-12-03T22:43:49.818Z,100996.38
2022-12-03T22:46:17.830Z,100992.47
2022-12-03T22:48:47.054Z,100992.00
2022-12-03T22:51:19.461Z,100993.08
2022-12-03T22:53:48.578Z,100996.54
2022-12-03T22:56:17.358Z,100994.47
2022-12-03T22:58:45.342Z,100991.59
2022-12-03T23:01:40.549Z,100988.06
2022-12-03T23:04:08.915Z,100981.77
2022-12-03T23:06:37.917Z,100978.90
2022-12-03T23:09:07.347Z,100974.77
2022-12-03T23:11:36.346Z,100975.36
2022-12-03T23:14:04.897Z,100972.27
2022-12-03T23:16:34.269Z,100969.70
2022-12-03T23:19:03.796Z,100968.41
2022-12-03T23:21:34.659Z,100965.52
2022-12-03T23:24:05.644Z,100966.92
2022-12-03T23:26:35.072Z,100966.48
2022-12-03T23:29:04.277Z,100968.96
2022-12-03T23:31:33.319Z,100970.48
2022-12-03T23:34:01.958Z,100973.91
2022-12-03T23:36:32.478Z,100977.96
2022-12-03T23:39:00.856Z,100978.93
2022-12-03T23:41:28.838Z,100977.77
2022-12-03T23:43:57.621Z,100978.19
2022-12-03T23:46:27.797Z,100980.51
2022-12-03T23:48:58.679Z,100981.09
2022-12-03T23:51:26.946Z,100984.73
2022-12-03T23:53:55.944Z,100980.15
2022-12-03T23:56:27.514Z,100976.75
2022-12-03T23:58:57.275Z,100975.77
